Time;durP1;ratioP1;P1;durP2;ratioP2;P2;SDS_P1;SDS_P2;PMS_P1;PMS_P2;Temp;Humidity;BMP_temperature;BMP_pressure;BME280_temperature;BME280_humidity;BME280_pressure;Samples;Min_cycle;Max_cycle;Signal;HPM_P1;HPM_P2
2021/04/14 00:01:58;;;;;;;2.13;0.95;;;19.20;34.20;;;;;;5077236;28;20064;-57
2021/04/14 00:04:25;;;;;;;0.85;0.77;;;19.20;34.20;;;;;;5077690;28;20111;-54
2021/04/14 00:06:53;;;;;;;2.47;1.05;;;19.20;34.30;;;;;;5077537;28;20047;-58
2021/04/14 00:09:19;;;;;;;2.25;0.82;;;19.20;34.30;;;;;;5077330;28;20446;-58
2021/04/14 00:11:44;;;;;;;1.60;0.80;;;19.10;34.20;;;;;;5077167;28;20060;-58
2021/04/14 00:14:10;;;;;;;1.45;0.75;;;19.10;34.20;;;;;;5077215;28;20032;-55
2021/04/14 00:16:36;;;;;;;0.93;0.80;;;19.10;34.20;;;;;;5059821;28;20032;-57
2021/04/14 00:19:02;;;;;;;2.78;0.70;;;19.10;34.20;;;;;;5076889;28;20033;-55
2021/04/14 00:21:28;;;;;;;1.70;1.02;;;19.10;34.20;;;;;;5076660;28;20112;-56
2021/04/14 00:23:55;;;;;;;2.10;0.80;;;19.10;34.30;;;;;;5077137;28;20112;-56
2021/04/14 00:26:20;;;;;;;0.80;0.80;;;19.10;34.20;;;;;;5077146;28;20507;-59
2021/04/14 00:28:46;;;;;;;0.85;0.80;;;19.10;34.20;;;;;;5076824;28;20052;-57
2021/04/14 00:31:12;;;;;;;1.08;0.82;;;19.10;34.20;;;;;;5077063;28;20037;-57
2021/04/14 00:33:39;;;;;;;1.35;1.02;;;19.10;34.20;;;;;;5076859;28;20094;-55
2021/04/14 00:36:04;;;;;;;0.98;0.85;;;19.00;34.20;;;;;;5077157;28;20044;-57
2021/04/14 00:38:30;;;;;;;1.52;1.00;;;19.00;34.20;;;;;;5077172;28;20032;-58
2021/04/14 00:40:59;;;;;;;0.85;0.75;;;19.00;34.20;;;;;;5076438;28;20063;-53
2021/04/14 00:43:28;;;;;;;2.03;1.00;;;19.00;34.30;;;;;;5076427;28;20047;-55
2021/04/14 00:45:55;;;;;;;1.25;0.80;;;19.00;34.30;;;;;;5076656;28;20078;-57
2021/04/14 00:48:21;;;;;;;3.42;0.90;;;19.00;34.30;;;;;;5076358;28;20048;-53
2021/04/14 00:50:47;;;;;;;1.20;0.75;;;19.00;34.30;;;;;;5076633;28;20039;-57
2021/04/14 00:53:14;;;;;;;1.55;0.70;;;19.00;34.30;;;;;;5076734;28;20029;-56
2021/04/14 00:55:40;;;;;;;1.13;0.70;;;18.90;34.30;;;;;;5076287;28;20124;-53
2021/04/14 00:58:08;;;;;;;1.70;1.00;;;18.90;34.30;;;;;;5076520;28;20111;-56
2021/04/14 01:00:43;;;;;;;1.30;0.85;;;18.90;34.30;;;;;;5076741;28;20033;-57
2021/04/14 01:03:33;;;;;;;1.50;0.90;;;18.90;34.30;;;;;;5076609;28;20112;-56
2021/04/14 01:06:01;;;;;;;1.45;0.90;;;18.90;34.30;;;;;;5075731;28;20033;-55
2021/04/14 01:08:26;;;;;;;1.73;0.90;;;18.90;34.30;;;;;;5076210;28;20045;-53
2021/04/14 01:10:53;;;;;;;1.38;0.80;;;18.90;34.30;;;;;;5076390;28;20090;-58
2021/04/14 01:13:19;;;;;;;1.50;0.80;;;18.80;34.30;;;;;;5076062;28;20083;-55
2021/04/14 01:15:48;;;;;;;0.57;0.57;;;18.90;34.30;;;;;;5076064;28;20021;-56
2021/04/14 01:18:17;;;;;;;1.20;0.77;;;18.80;34.30;;;;;;5076251;28;20040;-58
2021/04/14 01:20:42;;;;;;;1.27;1.00;;;18.80;34.30;;;;;;5075476;28;20098;-55
2021/04/14 01:23:09;;;;;;;1.38;0.60;;;18.80;34.30;;;;;;5075916;28;20447;-58
2021/04/14 01:25:38;;;;;;;1.48;0.80;;;18.80;34.30;;;;;;5075870;28;20032;-57
2021/04/14 01:28:15;;;;;;;2.15;0.80;;;18.80;34.30;;;;;;5076022;28;20051;-56
2021/04/14 01:30:42;;;;;;;2.25;1.08;;;18.80;34.40;;;;;;5075736;28;20032;-58
2021/04/14 01:33:09;;;;;;;1.35;0.70;;;18.80;34.40;;;;;;5074120;28;20044;-57
2021/04/14 01:35:35;;;;;;;1.33;0.70;;;18.80;34.40;;;;;;5075730;28;20024;-51
2021/04/14 01:38:00;;;;;;;0.90;0.60;;;18.80;34.40;;;;;;5075686;28;20372;-58
2021/04/14 01:40:27;;;;;;;1.20;0.82;;;18.80;34.40;;;;;;5075574;28;20435;-57
2021/04/14 01:42:54;;;;;;;1.50;0.63;;;18.80;34.40;;;;;;5075821;28;20033;-56
2021/04/14 01:45:26;;;;;;;2.25;0.90;;;18.70;34.40;;;;;;5075680;28;20040;-58
2021/04/14 01:47:51;;;;;;;2.10;1.05;;;18.70;34.40;;;;;;5075184;28;20054;-55
2021/04/14 01:50:17;;;;;;;0.82;0.60;;;18.70;34.40;;;;;;5075434;28;20100;-56
2021/04/14 01:52:43;;;;;;;1.70;1.00;;;18.70;34.40;;;;;;5075453;28;20107;-55
2021/04/14 01:55:09;;;;;;;1.50;0.88;;;18.70;34.40;;;;;;5075568;28;20370;-58
2021/04/14 01:57:34;;;;;;;2.10;0.80;;;18.70;34.50;;;;;;5075671;28;20029;-57
2021/04/14 02:00:00;;;;;;;1.30;0.93;;;18.70;34.50;;;;;;5075438;28;20036;-54
2021/04/14 02:02:25;;;;;;;1.42;1.00;;;18.70;34.50;;;;;;5074804;28;20332;-56
2021/04/14 02:04:51;;;;;;;1.77;0.82;;;18.70;34.50;;;;;;5075315;28;20524;-56
2021/04/14 02:07:17;;;;;;;1.38;0.90;;;18.70;34.50;;;;;;5075453;28;20037;-55
2021/04/14 02:09:42;;;;;;;1.50;0.98;;;18.60;34.50;;;;;;5075301;28;20044;-55
2021/04/14 02:12:09;;;;;;;2.78;0.90;;;18.60;34.50;;;;;;5075159;28;20107;-56
2021/04/14 02:14:35;;;;;;;1.20;0.80;;;18.60;34.50;;;;;;5074783;28;20052;-59
2021/04/14 02:17:01;;;;;;;1.13;0.68;;;18.60;34.50;;;;;;5074604;28;20037;-53
2021/04/14 02:19:27;;;;;;;1.60;0.77;;;18.60;34.50;;;;;;5075453;28;20381;-55
2021/04/14 02:21:53;;;;;;;1.15;0.68;;;18.60;34.60;;;;;;5057125;28;20036;-57
2021/04/14 02:24:18;;;;;;;2.40;0.68;;;18.60;34.60;;;;;;5074993;28;20082;-56
2021/04/14 02:26:44;;;;;;;1.48;0.90;;;18.60;34.60;;;;;;5075069;28;20044;-57
2021/04/14 02:29:09;;;;;;;1.45;0.80;;;18.60;34.60;;;;;;5075006;28;20052;-58
2021/04/14 02:31:35;;;;;;;1.95;0.80;;;18.60;34.70;;;;;;5074376;28;20122;-56
2021/04/14 02:34:09;;;;;;;1.27;0.70;;;18.60;34.70;;;;;;5075005;28;20071;-57
2021/04/14 02:36:34;;;;;;;;;;;18.50;34.60;;;;;;5075631;28;20046;-55
2021/04/14 02:39:01;;;;;;;1.15;0.75;;;18.50;34.60;;;;;;5075047;28;19908;-56
2021/04/14 02:41:27;;;;;;;1.80;1.17;;;18.50;34.60;;;;;;5057159;28;20029;-57
2021/04/14 02:43:54;;;;;;;1.63;1.08;;;18.50;34.70;;;;;;5075653;28;20106;-54
2021/04/14 02:46:20;;;;;;;1.48;0.63;;;18.50;34.70;;;;;;5078537;28;20064;-54
2021/04/14 02:48:50;;;;;;;2.00;0.95;;;18.50;34.70;;;;;;5061444;28;20110;-54
2021/04/14 02:51:16;;;;;;;2.53;1.02;;;18.40;34.70;;;;;;5078823;28;20454;-59
2021/04/14 02:53:41;;;;;;;1.83;0.90;;;18.40;34.70;;;;;;5079353;28;20106;-54
2021/04/14 02:56:07;;;;;;;3.25;0.82;;;18.50;34.80;;;;;;5078624;28;20041;-56
2021/04/14 02:58:34;;;;;;;1.20;0.80;;;18.50;34.80;;;;;;5078987;28;20040;-59
2021/04/14 03:00:59;;;;;;;1.23;0.73;;;18.40;34.80;;;;;;5078736;28;20443;-55
2021/04/14 03:03:27;;;;;;;4.75;0.90;;;18.40;34.80;;;;;;5078632;28;20039;-58
2021/04/14 03:05:53;;;;;;;2.13;1.08;;;18.40;34.80;;;;;;5078566;28;20024;-56
2021/04/14 03:08:18;;;;;;;1.05;0.82;;;18.40;34.80;;;;;;5078446;28;20051;-58
2021/04/14 03:10:44;;;;;;;1.30;0.75;;;18.40;34.90;;;;;;5078772;28;20044;-57
2021/04/14 03:13:10;;;;;;;1.33;0.77;;;18.40;34.80;;;;;;5078434;28;20051;-56
2021/04/14 03:15:39;;;;;;;2.33;0.95;;;18.40;34.90;;;;;;5078645;28;20510;-59
2021/04/14 03:18:05;;;;;;;1.13;0.70;;;18.50;34.90;;;;;;5078219;28;20036;-54
2021/04/14 03:20:31;;;;;;;1.02;0.80;;;18.40;34.90;;;;;;5078206;28;20063;-57
2021/04/14 03:22:56;;;;;;;1.65;1.05;;;18.40;34.90;;;;;;5078245;28;20455;-57
2021/04/14 03:25:26;;;;;;;1.13;0.85;;;18.40;34.90;;;;;;5078362;28;20354;-55
2021/04/14 03:27:51;;;;;;;1.52;0.90;;;18.40;34.90;;;;;;5078054;28;20040;-58
2021/04/14 03:30:18;;;;;;;1.85;1.05;;;18.40;34.90;;;;;;5077715;28;20040;-58
2021/04/14 03:32:44;;;;;;;3.08;1.40;;;18.30;34.80;;;;;;5078291;28;20033;-57
2021/04/14 03:35:10;;;;;;;2.70;1.10;;;18.30;34.80;;;;;;5078014;28;20040;-58
2021/04/14 03:37:35;;;;;;;1.33;0.77;;;18.40;34.90;;;;;;5078174;28;20036;-60
2021/04/14 03:40:01;;;;;;;2.20;0.98;;;18.30;34.80;;;;;;5077910;28;20094;-58
2021/04/14 03:42:27;;;;;;;1.42;0.75;;;18.30;34.90;;;;;;5077926;28;20028;-56
2021/04/14 03:44:53;;;;;;;3.47;1.00;;;18.30;34.90;;;;;;5078026;28;20084;-53
2021/04/14 03:47:20;;;;;;;1.65;1.00;;;18.30;34.90;;;;;;5078186;28;20036;-54
2021/04/14 03:49:46;;;;;;;2.55;1.15;;;18.30;34.90;;;;;;5077476;28;20123;-55
2021/04/14 03:52:12;;;;;;;1.63;0.95;;;18.30;34.90;;;;;;5078210;28;20182;-54
2021/04/14 03:54:37;;;;;;;0.80;0.70;;;18.30;34.90;;;;;;5077490;28;20045;-55
2021/04/14 03:57:03;;;;;;;2.05;0.88;;;18.20;34.90;;;;;;5076446;28;20036;-56
2021/04/14 03:59:29;;;;;;;0.82;0.80;;;18.30;35.00;;;;;;5077571;28;20116;-56
2021/04/14 04:01:54;;;;;;;1.13;0.82;;;18.20;34.90;;;;;;5077552;28;20096;-55
2021/04/14 04:04:21;;;;;;;2.75;1.10;;;18.20;35.00;;;;;;5077473;28;20464;-60
2021/04/14 04:06:47;;;;;;;0.80;0.70;;;18.20;35.00;;;;;;5077741;28;20029;-56
2021/04/14 04:09:12;;;;;;;1.48;0.88;;;18.20;35.00;;;;;;5077267;28;20051;-53
2021/04/14 04:11:38;;;;;;;2.33;0.88;;;18.20;35.00;;;;;;5077042;28;20354;-54
2021/04/14 04:14:04;;;;;;;2.20;1.20;;;18.20;35.00;;;;;;5077029;28;20056;-57
2021/04/14 04:16:29;;;;;;;1.63;1.05;;;18.20;35.00;;;;;;5077309;28;20028;-54
2021/04/14 04:18:55;;;;;;;1.70;0.75;;;18.20;35.00;;;;;;5077095;28;20068;-55
2021/04/14 04:21:21;;;;;;;1.95;1.33;;;18.20;35.00;;;;;;5077344;28;20111;-54
2021/04/14 04:23:48;;;;;;;2.30;0.90;;;18.20;35.00;;;;;;5076921;28;20033;-57
2021/04/14 04:26:13;;;;;;;1.60;0.95;;;18.20;35.00;;;;;;5076735;28;20040;-55
2021/04/14 04:28:39;;;;;;;1.17;1.08;;;18.10;35.00;;;;;;5076640;28;20053;-57
2021/04/14 04:31:05;;;;;;;2.05;1.13;;;18.10;35.00;;;;;;5077400;28;20455;-57
2021/04/14 04:33:30;;;;;;;1.85;1.02;;;18.10;35.00;;;;;;5076882;28;20080;-56
2021/04/14 04:35:56;;;;;;;3.05;1.15;;;18.10;35.10;;;;;;5076632;28;20488;-56
2021/04/14 04:38:22;;;;;;;1.40;1.00;;;18.10;35.10;;;;;;5076867;28;20115;-58
2021/04/14 04:40:48;;;;;;;1.80;1.10;;;18.10;35.10;;;;;;5076925;28;20066;-58
2021/04/14 04:43:14;;;;;;;1.35;1.10;;;18.10;35.10;;;;;;5059043;28;20124;-56
2021/04/14 04:45:40;;;;;;;1.60;0.95;;;18.10;35.10;;;;;;5076974;28;20432;-57
2021/04/14 04:48:06;;;;;;;1.92;1.42;;;18.10;35.20;;;;;;5076663;28;20131;-57
2021/04/14 04:50:34;;;;;;;2.47;1.08;;;18.10;35.20;;;;;;5076893;28;20107;-57
2021/04/14 04:53:04;;;;;;;1.90;1.20;;;18.10;35.20;;;;;;5076565;28;20413;-54
2021/04/14 04:55:30;;;;;;;1.60;1.00;;;18.10;35.20;;;;;;5076130;28;20056;-58
2021/04/14 04:57:56;;;;;;;1.42;1.05;;;18.10;35.20;;;;;;5076487;28;20069;-57
2021/04/14 05:00:22;;;;;;;1.52;1.17;;;18.10;35.30;;;;;;5076853;28;20028;-53
2021/04/14 05:02:49;;;;;;;1.63;1.35;;;18.10;35.30;;;;;;5076523;28;20056;-54
2021/04/14 05:05:19;;;;;;;2.70;1.27;;;18.00;35.80;;;;;;5076540;28;20025;-56
2021/04/14 05:07:44;;;;;;;2.28;1.40;;;18.00;36.40;;;;;;5076177;28;20422;-53
2021/04/14 05:10:11;;;;;;;4.40;1.42;;;18.10;36.10;;;;;;5075728;28;20044;-55
2021/04/14 05:12:37;;;;;;;3.33;1.38;;;18.00;36.00;;;;;;5076486;28;20040;-52
2021/04/14 05:15:04;;;;;;;3.03;1.45;;;18.00;35.90;;;;;;5075797;28;20565;-54
2021/04/14 05:17:29;;;;;;;3.70;1.70;;;18.00;35.90;;;;;;5076096;28;20040;-52
2021/04/14 05:19:55;;;;;;;2.58;1.40;;;18.00;35.90;;;;;;5058680;28;20036;-55
2021/04/14 05:22:22;;;;;;;3.17;1.70;;;18.00;35.80;;;;;;5058458;28;20036;-53
2021/04/14 05:24:48;;;;;;;1.90;1.40;;;18.00;35.80;;;;;;5058458;28;20127;-54
2021/04/14 05:27:15;;;;;;;3.60;1.40;;;17.90;35.80;;;;;;5058337;28;20123;-51
2021/04/14 05:29:40;;;;;;;2.38;1.52;;;17.90;35.80;;;;;;5075823;28;20039;-56
2021/04/14 05:32:06;;;;;;;2.45;1.52;;;17.90;35.80;;;;;;5075474;28;20036;-56
2021/04/14 05:34:32;;;;;;;4.70;1.40;;;18.00;35.80;;;;;;5076052;28;20058;-54
2021/04/14 05:36:57;;;;;;;4.53;1.23;;;17.90;35.80;;;;;;5075788;28;20047;-55
2021/04/14 05:39:23;;;;;;;1.98;1.60;;;17.90;35.80;;;;;;5075744;28;20103;-56
2021/04/14 05:41:48;;;;;;;2.00;1.27;;;17.90;35.80;;;;;;5075745;28;20091;-56
2021/04/14 05:44:14;;;;;;;2.42;1.67;;;17.90;35.80;;;;;;5075751;28;20443;-57
2021/04/14 05:46:39;;;;;;;2.92;1.30;;;17.90;35.80;;;;;;5058035;28;20043;-53
2021/04/14 05:49:05;;;;;;;2.13;1.50;;;17.90;35.80;;;;;;5075488;28;20047;-54
2021/04/14 05:51:32;;;;;;;2.53;1.17;;;17.90;35.80;;;;;;5075386;28;20041;-51
2021/04/14 05:54:00;;;;;;;3.53;1.23;;;17.90;35.80;;;;;;5057470;28;20370;-55
2021/04/14 05:56:27;;;;;;;7.22;1.73;;;17.90;35.80;;;;;;5075278;28;20028;-54
2021/04/14 05:58:53;;;;;;;4.07;1.85;;;17.90;36.40;;;;;;5075101;28;20067;-57
2021/04/14 06:01:21;;;;;;;2.10;1.55;;;17.90;36.70;;;;;;5057717;28;20111;-53
2021/04/14 06:03:50;;;;;;;5.25;1.80;;;17.90;36.70;;;;;;5075029;28;20037;-51
2021/04/14 06:06:17;;;;;;;5.85;1.65;;;17.90;37.30;;;;;;5075231;28;20046;-53
2021/04/14 06:08:43;;;;;;;1.92;1.25;;;17.90;36.70;;;;;;5074865;28;20422;-53
2021/04/14 06:11:09;;;;;;;4.30;1.33;;;17.90;36.70;;;;;;5075091;28;20024;-50
2021/04/14 06:13:35;;;;;;;5.13;1.40;;;17.90;36.70;;;;;;5057124;28;20437;-50
2021/04/14 06:16:02;;;;;;;4.32;1.40;;;18.00;36.70;;;;;;5057429;28;20115;-51
2021/04/14 06:18:27;;;;;;;2.75;1.25;;;18.00;36.80;;;;;;5074316;28;20451;-54
2021/04/14 06:20:53;;;;;;;4.95;1.40;;;18.00;36.80;;;;;;5074732;28;20081;-51
2021/04/14 06:23:21;;;;;;;5.88;1.20;;;18.00;36.70;;;;;;5075487;28;20037;-52
2021/04/14 06:26:00;;;;;;;6.57;1.17;;;18.10;36.80;;;;;;5075072;28;20134;-52
2021/04/14 06:28:27;;;;;;;5.20;1.38;;;18.20;36.90;;;;;;5074843;28;20082;-52
2021/04/14 06:30:53;;;;;;;3.05;1.10;;;18.20;36.90;;;;;;5074536;28;20032;-53
2021/04/14 06:33:20;;;;;;;5.72;1.58;;;18.30;37.00;;;;;;5074230;28;20056;-50
2021/04/14 06:35:47;;;;;;;8.00;1.10;;;18.30;37.00;;;;;;5074794;28;20455;-55
2021/04/14 06:38:18;;;;;;;2.58;1.20;;;18.40;37.10;;;;;;5074825;28;20041;-57
2021/04/14 06:40:58;;;;;;;2.92;1.20;;;18.40;37.00;;;;;;5074727;28;20047;-56
2021/04/14 06:43:42;;;;;;;6.75;1.02;;;18.50;37.00;;;;;;5073785;28;20032;-51
2021/04/14 06:46:18;;;;;;;3.75;1.40;;;18.50;37.00;;;;;;5074812;28;20053;-50
2021/04/14 06:49:09;;;;;;;2.92;1.10;;;18.50;37.00;;;;;;5074583;28;20045;-55
2021/04/14 06:52:14;;;;;;;3.92;0.77;;;18.60;37.00;;;;;;5074201;28;20051;-52
2021/04/14 06:55:03;;;;;;;2.00;1.10;;;18.60;37.10;;;;;;5074978;28;20071;-51
2021/04/14 06:57:41;;;;;;;2.28;0.85;;;18.60;37.10;;;;;;5063402;28;20367;-53
2021/04/14 07:00:23;;;;;;;4.05;1.33;;;18.70;37.10;;;;;;5074311;28;20037;-52
2021/04/14 07:02:58;;;;;;;1.90;1.00;;;18.70;37.20;;;;;;5074552;28;20041;-51
2021/04/14 07:05:31;;;;;;;4.50;1.42;;;18.70;37.20;;;;;;5074487;28;20397;-56
2021/04/14 07:08:01;;;;;;;4.82;0.85;;;18.80;37.30;;;;;;5074392;28;20048;-53
2021/04/14 07:10:30;;;;;;;5.85;1.20;;;18.80;37.40;;;;;;5074361;28;20120;-53
2021/04/14 07:13:01;;;;;;;2.75;1.20;;;18.80;37.60;;;;;;5074461;28;20047;-49
2021/04/14 07:15:27;;;;;;;2.45;1.00;;;18.80;37.50;;;;;;5074417;28;20462;-57
2021/04/14 07:17:59;;;;;;;1.88;1.08;;;18.90;37.50;;;;;;5074096;28;20115;-51
2021/04/14 07:20:59;;;;;;;1.95;1.05;;;18.90;37.50;;;;;;5074328;28;20101;-46
2021/04/14 07:24:00;;;;;;;2.17;1.13;;;18.90;37.50;;;;;;5073127;28;20102;-54
2021/04/14 07:26:41;;;;;;;1.83;1.23;;;18.80;37.50;;;;;;5074124;28;20405;-51
